Time;durP1;ratioP1;P1;durP2;ratioP2;P2;SDS_P1;SDS_P2;PMS_P1;PMS_P2;Temp;Humidity;BMP_temperature;BMP_pressure;BME280_temperature;BME280_humidity;BME280_pressure;Samples;Min_cycle;Max_cycle;Signal;HPM_P1;HPM_P2
2023/10/24 00:00:33;;;;;;;;;16.00;16.00;;;;;19.45;82.57;101113.66;146619;682;46020;-65
2023/10/24 00:03:34;;;;;;;;;13.33;10.00;;;;;19.45;81.55;101113.66;146614;581;46017;-65
2023/10/24 00:06:34;;;;;;;;;15.67;13.00;;;;;19.44;81.80;101113.59;146619;571;46020;-67
2023/10/24 00:10:09;;;;;;;;;14.00;12.00;;;;;19.38;81.19;101103.88;146619;586;46012;-65
2023/10/24 00:13:07;;;;;;;;;11.00;9.67;;;;;19.30;81.28;101111.56;146635;590;45020;-65
2023/10/24 00:16:10;;;;;;;;;15.67;11.33;;;;;19.22;81.41;101110.53;146636;606;45016;-65
2023/10/24 00:19:08;;;;;;;;;16.00;13.67;;;;;19.13;81.95;101110.31;146639;581;45010;-65
2023/10/24 00:22:08;;;;;;;;;14.00;12.00;;;;;19.03;82.78;101111.84;146631;582;46012;-67
2023/10/24 00:25:15;;;;;;;;;;;;;;;;;;;;;
2023/10/24 00:28:34;;;;;;;;;14.33;13.33;;;;;18.86;83.92;101102.69;146635;575;45016;-67
2023/10/24 00:31:29;;;;;;;;;15.00;13.00;;;;;18.81;85.20;101096.44;146636;581;46010;-65
2023/10/24 00:34:24;;;;;;;;;12.00;10.67;;;;;18.78;86.25;101101.59;146634;657;45017;-66
2023/10/24 00:37:21;;;;;;;;;19.00;14.33;;;;;18.74;86.32;101095.41;146636;698;46051;-65
2023/10/24 00:40:22;;;;;;;;;16.33;13.33;;;;;18.71;86.14;101103.16;146630;633;46017;-66
2023/10/24 00:43:25;;;;;;;;;19.33;14.00;;;;;18.71;85.88;101105.78;146635;646;45020;-65
2023/10/24 00:46:42;;;;;;;;;12.67;12.00;;;;;18.71;86.10;101097.91;146637;609;45012;-65
2023/10/24 00:50:02;;;;;;;;;14.33;11.67;;;;;18.69;86.48;101091.72;146634;635;45021;-65
2023/10/24 00:53:03;;;;;;;;;14.00;13.00;;;;;18.72;86.72;101088.28;146634;592;45018;-65
2023/10/24 00:56:01;;;;;;;;;13.33;11.67;;;;;18.77;86.77;101090.22;146631;583;46010;-64
2023/10/24 00:59:00;;;;;;;;;16.67;14.33;;;;;18.84;86.84;101084.25;146634;671;46012;-65
2023/10/24 01:02:20;;;;;;;;;17.33;14.00;;;;;18.90;85.64;101086.12;146635;598;46010;-66
2023/10/24 01:05:38;;;;;;;;;16.33;13.00;;;;;17.23;84.68;100793.41;146635;569;45016;-65
2023/10/24 01:08:45;;;;;;;;;15.00;14.67;;;;;18.84;86.25;101078.09;146637;570;45015;-65
2023/10/24 01:11:40;;;;;;;;;17.00;15.00;;;;;18.76;86.80;101071.81;146629;570;46012;-65
2023/10/24 01:14:51;;;;;;;;;11.33;11.00;;;;;17.07;85.98;100800.88;146622;573;46014;-65
2023/10/24 01:18:03;;;;;;;;;13.33;12.00;;;;;18.65;85.80;101066.25;146620;614;46035;-65
2023/10/24 01:21:12;;;;;;;;;15.00;12.00;;;;;18.65;86.94;101068.88;146615;565;46915;-65
2023/10/24 01:24:08;;;;;;;;;12.67;10.33;;;;;18.64;87.53;101070.63;146618;594;45034;-65
2023/10/24 01:27:30;;;;;;;;;14.67;11.00;;;;;18.65;87.68;101072.38;146619;569;46010;-66
2023/10/24 01:30:31;;;;;;;;;14.00;9.00;;;;;18.65;87.33;101067.13;146617;721;46016;-66
2023/10/24 01:33:38;;;;;;;;;13.33;11.33;;;;;18.67;86.56;101064.56;146626;583;46010;-67
2023/10/24 01:36:36;;;;;;;;;10.33;10.00;;;;;18.72;87.27;101065.53;146617;654;46016;-65
2023/10/24 01:39:31;;;;;;;;;15.67;11.00;;;;;18.78;86.64;101070.97;146621;594;46011;-67
2023/10/24 01:42:35;;;;;;;;;17.33;12.00;;;;;18.83;86.63;101069.34;146620;571;46012;-65
2023/10/24 01:46:14;;;;;;;;;11.00;10.00;;;;;17.50;84.76;100829.87;146619;587;46020;-65
2023/10/24 01:49:22;;;;;;;;;14.00;12.00;;;;;17.40;83.88;100823.53;146617;564;46012;-67
2023/10/24 01:52:25;;;;;;;;;17.33;12.33;;;;;18.75;84.72;101060.37;146621;648;46010;-65
2023/10/24 01:55:34;;;;;;;;;15.00;11.67;;;;;17.11;84.50;100793.97;146616;582;46014;-64
2023/10/24 01:58:46;;;;;;;;;20.00;13.00;;;;;18.63;85.86;101063.59;146617;569;47020;-64
2023/10/24 02:01:40;;;;;;;;;14.75;13.00;;;;;18.58;87.54;101070.47;146616;608;46015;-65
2023/10/24 02:04:37;;;;;;;;;14.33;13.67;;;;;18.53;86.04;101069.47;146621;563;46010;-65
2023/10/24 02:07:42;;;;;;;;;15.00;10.67;;;;;18.50;87.28;101066.75;146615;563;46916;-66
2023/10/24 02:10:40;;;;;;;;;13.33;12.67;;;;;18.49;87.46;101066.75;146618;580;46020;-67
2023/10/24 02:13:33;;;;;;;;;9.67;9.67;;;;;18.45;86.37;101061.41;146618;569;46016;-67
2023/10/24 02:16:32;;;;;;;;;14.33;13.33;;;;;18.43;85.93;101056.97;146625;664;45020;-66
2023/10/24 02:19:31;;;;;;;;;13.00;10.67;;;;;18.41;86.58;101063.91;146617;626;46012;-66
2023/10/24 02:22:26;;;;;;;;;8.67;8.67;;;;;18.39;86.14;101066.50;146621;592;46010;-65
2023/10/24 02:25:59;;;;;;;;;11.00;10.00;;;;;18.40;85.49;101073.53;146619;584;46016;-66
2023/10/24 02:29:12;;;;;;;;;12.33;10.33;;;;;18.35;85.99;101071.63;146618;573;46010;-65
2023/10/24 02:32:16;;;;;;;;;10.00;9.33;;;;;18.28;85.57;101075.84;146618;619;46013;-66
2023/10/24 02:35:35;;;;;;;;;15.33;12.33;;;;;18.21;86.43;101076.53;146622;599;46020;-67
2023/10/24 02:38:47;;;;;;;;;16.33;13.00;;;;;16.48;86.08;100792.25;146618;603;46015;-66
2023/10/24 02:41:41;;;;;;;;;12.00;10.67;;;;;18.10;86.82;101078.91;146617;594;46021;-66
2023/10/24 02:45:00;;;;;;;;;11.00;9.67;;;;;18.05;86.81;101082.25;146615;569;46016;-66
2023/10/24 02:48:13;;;;;;;;;15.00;13.33;;;;;17.27;86.03;100949.88;146621;608;46010;-67
2023/10/24 02:51:23;;;;;;;;;12.67;10.67;;;;;16.34;85.68;100789.22;146617;652;46012;-65
2023/10/24 02:54:35;;;;;;;;;12.67;11.00;;;;;16.67;86.61;100846.00;146620;586;46021;-67
2023/10/24 02:57:31;;;;;;;;;11.33;10.67;;;;;17.97;86.72;101085.56;146616;607;47040;-67
2023/10/24 03:00:36;;;;;;;;;11.00;10.33;;;;;18.02;86.87;101080.44;146618;564;46021;-66
2023/10/24 03:03:49;;;;;;;;;14.00;12.00;;;;;18.07;86.34;101081.44;146617;625;46037;-67
2023/10/24 03:07:00;;;;;;;;;15.33;13.33;;;;;18.15;85.49;101079.88;146616;625;46020;-68
2023/10/24 03:09:53;;;;;;;;;16.00;13.33;;;;;18.20;86.16;101090.53;146615;610;46012;-66
2023/10/24 03:12:49;;;;;;;;;15.00;10.67;;;;;18.15;85.03;101087.75;146639;575;45010;-64
2023/10/24 03:15:50;;;;;;;;;16.33;13.00;;;;;18.05;85.03;101087.50;146635;619;45013;-64
2023/10/24 03:19:01;;;;;;;;;12.33;11.67;;;;;16.13;84.55;100784.25;146635;663;45020;-64
2023/10/24 03:22:06;;;;;;;;;15.67;13.33;;;;;17.81;85.58;101101.72;146635;613;45915;-64
2023/10/24 03:25:05;;;;;;;;;14.00;13.00;;;;;17.74;85.87;101095.38;146637;574;45021;-66
2023/10/24 03:28:19;;;;;;;;;12.00;10.67;;;;;17.72;85.78;101093.56;146633;581;45913;-67
2023/10/24 03:31:23;;;;;;;;;9.67;9.67;;;;;17.69;86.34;101088.22;146634;614;45020;-65
2023/10/24 03:34:30;;;;;;;;;13.00;10.33;;;;;17.66;86.13;101089.06;146637;584;45016;-65
2023/10/24 03:37:25;;;;;;;;;13.00;12.33;;;;;17.63;86.43;101091.59;146638;574;45011;-64
2023/10/24 03:40:37;;;;;;;;;13.00;12.00;;;;;17.66;86.47;101090.75;146636;593;45012;-66
2023/10/24 03:43:52;;;;;;;;;15.33;12.00;;;;;16.01;85.99;100814.38;146624;645;47020;-65
2023/10/24 03:46:48;;;;;;;;;16.00;9.67;;;;;17.62;86.47;101095.03;146632;580;46014;-65
2023/10/24 03:49:44;;;;;;;;;16.00;10.33;;;;;17.62;87.13;101097.66;146637;595;45020;-65
2023/10/24 03:52:45;;;;;;;;;15.33;13.00;;;;;17.61;86.88;101102.88;146634;664;45017;-65
2023/10/24 03:55:47;;;;;;;;;12.00;10.67;;;;;17.57;87.48;101107.13;146631;688;46918;-65
2023/10/24 03:59:03;;;;;;;;;14.00;13.00;;;;;16.55;86.18;100939.91;146633;671;45016;-64
2023/10/24 04:02:10;;;;;;;;;16.33;16.00;;;;;17.55;86.37;101091.34;146636;570;46008;-63
2023/10/24 04:05:03;;;;;;;;;18.00;15.00;;;;;17.57;86.87;101094.03;146631;612;45914;-65
2023/10/24 04:08:03;;;;;;;;;15.00;14.00;;;;;17.61;87.45;101097.63;146633;606;45020;-64
2023/10/24 04:11:29;;;;;;;;;18.33;14.00;;;;;16.35;87.09;100877.37;146629;579;46016;-65
2023/10/24 04:14:27;;;;;;;;;14.33;12.33;;;;;17.63;86.88;101095.91;146621;596;46010;-64
2023/10/24 04:17:44;;;;;;;;;16.67;14.00;;;;;17.59;87.74;101094.06;146618;569;46012;-64
2023/10/24 04:20:39;;;;;;;;;15.00;14.67;;;;;17.57;86.84;101093.12;146623;677;46010;-64
2023/10/24 04:23:48;;;;;;;;;19.33;13.67;;;;;17.55;87.13;101093.09;146613;595;47017;-65
2023/10/24 04:26:49;;;;;;;;;13.00;12.00;;;;;17.54;86.83;101101.81;146618;564;46020;-65
2023/10/24 04:29:52;;;;;;;;;18.00;15.00;;;;;17.54;87.85;101114.91;146616;662;46015;-64
2023/10/24 04:32:50;;;;;;;;;20.00;16.33;;;;;17.49;87.82;101101.66;146621;594;46014;-64
2023/10/24 04:36:01;;;;;;;;;19.75;17.50;;;;;17.50;87.18;101107.78;146617;565;46012;-65
2023/10/24 04:39:05;;;;;;;;;;;;;;;;;;;;;
2023/10/24 04:42:21;;;;;;;;;20.00;16.00;;;;;17.50;87.88;101103.41;146619;563;46012;-64
2023/10/24 04:45:33;;;;;;;;;17.75;16.00;;;;;17.53;87.83;101105.25;146616;657;47011;-64
2023/10/24 04:48:32;;;;;;;;;24.67;19.00;;;;;17.54;88.24;101115.81;146615;579;46012;-65
2023/10/24 04:51:40;;;;;;;;;19.33;16.33;;;;;17.54;89.17;101123.66;146620;633;45020;-67
2023/10/24 04:54:34;;;;;;;;;20.25;16.00;;;;;17.55;88.41;101122.81;146617;663;46016;-67
2023/10/24 04:57:32;;;;;;;;;19.75;16.00;;;;;17.58;88.44;101123.75;146621;643;46010;-64
2023/10/24 05:00:31;;;;;;;;;18.00;16.50;;;;;17.60;88.13;101125.59;146616;634;46013;-65
2023/10/24 05:03:29;;;;;;;;;13.00;12.00;;;;;17.63;88.78;101133.53;146618;569;46010;-68
2023/10/24 05:06:37;;;;;;;;;14.67;10.67;;;;;17.75;89.85;101133.88;146617;572;46016;-69
2023/10/24 05:09:50;;;;;;;;;14.33;11.33;;;;;17.94;89.87;101140.59;146619;573;46021;-69
2023/10/24 05:12:51;;;;;;;;;18.00;17.67;;;;;18.13;88.78;101134.09;146630;584;47016;-70
2023/10/24 05:15:45;;;;;;;;;17.00;14.25;;;;;18.21;87.36;101137.78;146637;565;45021;-69
2023/10/24 05:18:37;;;;;;;;;20.50;16.75;;;;;18.26;86.82;101139.69;146634;722;45012;-69
2023/10/24 05:21:53;;;;;;;;;16.75;16.75;;;;;18.30;87.33;101133.66;146636;646;46010;-69
2023/10/24 05:25:03;;;;;;;;;18.25;15.50;;;;;18.39;86.46;101134.78;146632;676;45913;-69
2023/10/24 05:28:05;;;;;;;;;21.00;19.75;;;;;18.64;87.25;101146.78;146637;601;45020;-69
2023/10/24 05:31:03;;;;;;;;;23.50;19.00;;;;;19.19;86.99;101154.25;146628;707;47914;-70
2023/10/24 05:33:59;;;;;;;;;22.00;19.00;;;;;19.74;85.73;101152.84;146632;590;45020;-70
2023/10/24 05:36:57;;;;;;;;;19.67;19.00;;;;;20.26;84.23;101156.53;146633;631;46016;-69
2023/10/24 05:40:02;;;;;;;;;;;;;;;;;;;;;
2023/10/24 05:43:07;;;;;;;;;25.75;22.00;;;;;21.50;78.86;101160.31;146632;569;46912;-69
2023/10/24 05:46:13;;;;;;;;;;;;;;;;;;;;;
2023/10/24 05:49:26;;;;;;;;;24.50;21.00;;;;;22.57;73.23;101166.84;146634;643;45911;-70
2023/10/24 05:52:22;;;;;;;;;26.33;19.67;;;;;23.08;71.98;101161.97;146636;638;46011;-69
2023/10/24 05:55:28;;;;;;;;;22.00;19.33;;;;;23.49;71.06;101172.84;146636;577;45016;-70
2023/10/24 05:58:36;;;;;;;;;26.25;19.50;;;;;23.98;69.88;101181.88;146634;679;45020;-70
2023/10/24 06:01:38;;;;;;;;;24.33;20.33;;;;;24.52;67.75;101187.38;146632;667;46012;-69
2023/10/24 06:04:36;;;;;;;;;18.67;17.00;;;;;25.03;66.02;101188.25;146636;584;45020;-69
2023/10/24 06:07:58;;;;;;;;;;;;;;;;;;;;;
2023/10/24 06:11:15;;;;;;;;;21.33;19.33;;;;;25.68;63.75;101201.44;146632;577;45020;-70
2023/10/24 06:14:27;;;;;;;;;21.67;19.00;;;;;25.79;62.57;101208.47;146616;597;46017;-69
2023/10/24 06:17:23;;;;;;;;;18.00;18.00;;;;;25.85;61.59;101214.66;146620;569;46020;-70
2023/10/24 06:20:30;;;;;;;;;20.00;18.00;;;;;25.82;62.30;101212.91;146618;566;46012;-69
2023/10/24 06:23:25;;;;;;;;;18.33;17.33;;;;;25.72;59.77;101214.69;146616;588;46014;-69
2023/10/24 06:26:27;;;;;;;;;18.33;17.33;;;;;25.52;61.09;101219.19;146616;572;46016;-68
2023/10/24 06:29:27;;;;;;;;;18.33;15.00;;;;;25.29;61.16;101225.41;146621;581;46011;-69
2023/10/24 06:32:29;;;;;;;;;19.67;15.67;;;;;25.09;62.34;101227.16;146615;575;47016;-69
2023/10/24 06:35:24;;;;;;;;;19.33;16.67;;;;;24.92;61.70;101227.16;146620;639;46020;-70
2023/10/24 06:38:48;;;;;;;;;20.33;19.00;;;;;24.77;64.65;101233.34;146618;594;46012;-70
2023/10/24 06:41:58;;;;;;;;;21.00;19.00;;;;;24.63;62.11;101232.44;146619;577;46020;-69
2023/10/24 06:44:55;;;;;;;;;17.67;16.00;;;;;24.36;62.52;101228.84;146620;595;46013;-70
2023/10/24 06:48:26;;;;;;;;;20.67;19.00;;;;;24.20;65.39;101229.66;146620;613;46020;-68
2023/10/24 06:51:24;;;;;;;;;20.33;19.33;;;;;24.13;65.85;101233.16;146618;599;46014;-69
2023/10/24 06:54:34;;;;;;;;;23.67;20.00;;;;;24.11;65.28;101229.63;146621;569;46010;-69
2023/10/24 06:57:30;;;;;;;;;23.67;18.00;;;;;24.01;64.77;101228.69;146616;594;46916;-69
2023/10/24 07:00:24;;;;;;;;;22.67;18.00;;;;;24.04;65.96;101235.78;146621;586;47014;-70
2023/10/24 07:03:33;;;;;;;;;17.33;16.00;;;;;24.07;65.58;101233.16;146611;563;47014;-69
2023/10/24 07:06:42;;;;;;;;;17.00;16.00;;;;;24.07;66.56;101238.44;146616;581;46010;-70
2023/10/24 07:09:42;;;;;;;;;21.00;18.00;;;;;24.09;65.80;101236.69;146616;585;46016;-70
2023/10/24 07:12:42;;;;;;;;;29.25;26.00;;;;;24.13;65.33;101231.41;146617;602;46020;-69
2023/10/24 07:15:50;;;;;;;;;21.33;20.00;;;;;24.15;66.46;101242.03;146615;610;46016;-70
2023/10/24 07:18:54;;;;;;;;;23.33;22.00;;;;;22.80;67.75;100984.59;146618;607;46020;-69
2023/10/24 07:21:54;;;;;;;;;22.00;22.00;;;;;24.35;66.11;101234.13;146616;666;46013;-71
2023/10/24 07:25:01;;;;;;;;;;;;;;;;;;;;;
2023/10/24 07:28:14;;;;;;;;;29.25;23.00;;;;;24.51;67.19;101235.06;146616;654;46012;-69
2023/10/24 07:31:06;;;;;;;;;29.25;24.00;;;;;24.52;66.26;101237.75;146617;572;46020;-70
2023/10/24 07:34:39;;;;;;;;;25.00;21.33;;;;;24.64;67.04;101236.84;146616;582;46014;-70
2023/10/24 07:37:36;;;;;;;;;28.75;24.75;;;;;24.83;66.14;101241.31;146617;564;46021;-70
2023/10/24 07:40:29;;;;;;;;;28.25;26.00;;;;;24.96;65.12;101239.56;146616;563;47012;-70
2023/10/24 07:43:27;;;;;;;;;27.50;23.75;;;;;25.05;63.75;101242.22;146622;571;46010;-69
2023/10/24 07:46:25;;;;;;;;;32.25;26.25;;;;;25.16;65.79;101242.22;146614;569;46914;-70
2023/10/24 07:49:37;;;;;;;;;;;;;;;;;;;;;
2023/10/24 07:52:46;;;;;;;;;;;;;;;;;;;;;
2023/10/24 07:55:58;;;;;;;;;42.75;33.50;;;;;24.02;64.46;101026.53;146616;577;46020;-70
2023/10/24 07:58:59;;;;;;;;;28.75;24.75;;;;;25.31;63.65;101236.91;146615;619;46016;-69
2023/10/24 08:02:04;;;;;;;;;31.50;28.50;;;;;25.33;65.33;101228.97;146616;592;46020;-70
2023/10/24 08:05:04;;;;;;;;;31.50;27.25;;;;;25.45;64.00;101238.66;146616;664;46016;-70
2023/10/24 08:08:06;;;;;;;;;28.50;24.75;;;;;25.59;65.70;101223.59;146620;594;45021;-71
2023/10/24 08:11:00;;;;;;;;;30.00;25.00;;;;;25.77;63.84;101223.53;146610;599;46920;-70
2023/10/24 08:14:04;;;;;;;;;28.75;25.50;;;;;25.90;63.51;101218.19;146621;575;45020;-70
2023/10/24 08:17:05;;;;;;;;;30.00;23.25;;;;;26.03;63.58;101223.44;146610;640;46014;-71
2023/10/24 08:19:59;;;;;;;;;24.50;22.50;;;;;26.16;62.46;101216.28;146620;563;46010;-70
2023/10/24 08:22:53;;;;;;;;;25.50;22.00;;;;;26.26;61.85;101218.03;146613;628;46017;-69
2023/10/24 08:25:56;;;;;;;;;25.75;24.50;;;;;26.37;61.67;101217.97;146621;584;46014;-66
2023/10/24 08:28:55;;;;;;;;;26.00;21.25;;;;;26.55;62.25;101216.13;146614;686;46016;-68
2023/10/24 08:32:02;;;;;;;;;24.50;20.25;;;;;26.08;61.85;101101.19;146611;580;46020;-67
2023/10/24 08:35:23;;;;;;;;;18.25;17.50;;;;;26.88;61.29;101214.97;146611;666;47013;-69
2023/10/24 08:38:22;;;;;;;;;18.33;17.00;;;;;27.00;61.00;101214.84;146618;565;46010;-69
2023/10/24 08:41:19;;;;;;;;;16.00;16.00;;;;;27.05;60.76;101209.50;146617;612;46012;-68
2023/10/24 08:44:24;;;;;;;;;17.67;15.00;;;;;25.68;60.16;100962.41;146618;565;46021;-68
2023/10/24 08:47:23;;;;;;;;;18.33;15.00;;;;;27.13;60.58;101210.31;146615;571;46029;-68
2023/10/24 08:50:33;;;;;;;;;17.67;17.00;;;;;27.16;61.73;101215.63;146617;651;46020;-68
2023/10/24 08:53:32;;;;;;;;;20.00;17.67;;;;;27.14;60.62;101202.34;146617;647;46016;-68
2023/10/24 08:56:34;;;;;;;;;20.00;17.67;;;;;27.13;60.59;101208.56;146619;625;46020;-68
2023/10/24 08:59:33;;;;;;;;;16.00;15.00;;;;;27.10;60.04;101211.25;146618;590;47012;-68
2023/10/24 09:02:34;;;;;;;;;20.67;17.00;;;;;27.12;60.96;101198.78;146617;569;47020;-69
2023/10/24 09:05:46;;;;;;;;;17.67;14.33;;;;;27.18;60.68;101197.88;146617;654;46015;-68
2023/10/24 09:09:02;;;;;;;;;16.67;16.00;;;;;25.99;62.68;100968.41;146617;573;46020;-68
2023/10/24 09:12:22;;;;;;;;;17.00;15.67;;;;;26.46;62.06;101020.25;146616;610;46018;-69
2023/10/24 09:15:18;;;;;;;;;20.67;17.67;;;;;27.45;58.39;101193.19;146620;610;46020;-68
2023/10/24 09:18:21;;;;;;;;;19.33;17.33;;;;;27.40;61.27;101196.75;146613;578;46038;-68
2023/10/24 09:21:14;;;;;;;;;15.00;14.33;;;;;27.36;58.68;101188.81;146618;660;46021;-68
2023/10/24 09:24:36;;;;;;;;;17.00;15.00;;;;;27.31;61.56;101193.31;146614;635;46016;-69
2023/10/24 09:27:47;;;;;;;;;14.33;13.00;;;;;27.27;60.35;101192.47;146621;578;46011;-68
2023/10/24 09:31:01;;;;;;;;;19.00;14.00;;;;;27.30;60.01;101192.44;146616;571;46016;-69
2023/10/24 09:33:57;;;;;;;;;16.33;15.67;;;;;27.32;61.24;101197.72;146617;672;46020;-68
2023/10/24 09:37:23;;;;;;;;;20.33;15.00;;;;;27.45;61.89;101188.72;146620;597;46012;-70
2023/10/24 09:40:41;;;;;;;;;18.00;16.67;;;;;27.62;61.26;101186.72;146621;584;46020;-70
2023/10/24 09:44:10;;;;;;;;;16.33;16.00;;;;;27.68;61.05;101177.78;146616;569;46016;-68
2023/10/24 09:47:07;;;;;;;;;14.00;14.00;;;;;27.73;57.09;101172.44;146621;579;46020;-69
2023/10/24 09:50:28;;;;;;;;;14.00;13.33;;;;;27.81;59.27;101173.22;146618;623;46016;-68
2023/10/24 09:53:23;;;;;;;;;12.67;11.67;;;;;27.87;57.24;101167.81;146620;584;46010;-67
2023/10/24 09:56:29;;;;;;;;;12.67;12.00;;;;;27.91;55.82;101169.53;146614;647;47012;-68
2023/10/24 09:59:32;;;;;;;;;18.67;15.00;;;;;27.94;57.00;101169.50;146621;573;46010;-69
2023/10/24 10:02:39;;;;;;;;;15.00;14.00;;;;;28.01;57.06;101162.31;146618;583;46913;-68
2023/10/24 10:05:56;;;;;;;;;14.00;13.33;;;;;28.01;56.32;101155.19;146618;595;46021;-68
2023/10/24 10:09:11;;;;;;;;;15.33;13.67;;;;;27.96;58.38;101153.50;146614;627;46016;-69
2023/10/24 10:12:18;;;;;;;;;14.67;13.33;;;;;27.86;57.43;101142.06;146619;599;46011;-68
2023/10/24 10:16:07;;;;;;;;;11.33;10.67;;;;;27.83;59.74;101136.78;146615;666;46016;-69
2023/10/24 10:20:02;;;;;;;;;18.67;14.67;;;;;26.60;61.26;100909.31;146620;674;46010;-68
2023/10/24 10:23:24;;;;;;;;;15.33;14.00;;;;;27.89;58.51;101123.38;146617;640;47012;-67
2023/10/24 10:26:44;;;;;;;;;15.00;14.33;;;;;27.85;57.49;101119.88;146620;576;47010;-67
2023/10/24 10:30:23;;;;;;;;;17.00;14.67;;;;;27.74;59.80;101115.56;146616;576;46016;-68
2023/10/24 10:33:55;;;;;;;;;19.00;16.33;;;;;27.71;56.64;101112.94;146620;607;46020;-68
2023/10/24 10:37:09;;;;;;;;;22.00;16.00;;;;;27.45;60.08;101111.50;146610;600;46012;-67
2023/10/24 10:40:28;;;;;;;;;18.00;14.67;;;;;26.02;61.57;100883.34;146617;633;46030;-71
2023/10/24 10:43:55;;;;;;;;;17.33;15.00;;;;;27.26;60.15;101099.28;146619;577;46012;-70
2023/10/24 10:47:03;;;;;;;;;17.33;15.33;;;;;27.12;59.76;101088.75;146616;565;47010;-70
2023/10/24 10:50:07;;;;;;;;;18.00;17.00;;;;;27.03;59.72;101075.56;146614;606;46017;-68
2023/10/24 10:54:02;;;;;;;;;;;;;;;;;;;;;
2023/10/24 10:57:07;;;;;;;;;18.33;14.67;;;;;26.70;60.97;101078.56;146615;567;47017;-68
2023/10/24 11:00:20;;;;;;;;;13.67;13.00;;;;;26.65;60.75;101076.84;146619;627;47010;-69
2023/10/24 11:03:49;;;;;;;;;20.67;18.33;;;;;25.28;62.76;100846.75;146617;657;47037;-68
2023/10/24 11:07:06;;;;;;;;;15.33;14.67;;;;;24.94;60.33;100786.81;146615;652;46576;-67
2023/10/24 11:10:20;;;;;;;;;16.33;16.00;;;;;25.91;61.36;100967.56;146616;569;45582;-67
2023/10/24 11:13:48;;;;;;;;;19.00;16.33;;;;;24.97;63.05;100822.16;146636;666;45021;-66
2023/10/24 11:16:44;;;;;;;;;18.00;16.00;;;;;26.43;60.71;101062.81;146632;563;46014;-67
2023/10/24 11:20:12;;;;;;;;;15.00;14.00;;;;;25.04;60.03;100821.22;146634;648;46020;-68
2023/10/24 11:23:09;;;;;;;;;17.33;16.00;;;;;26.31;60.05;101049.63;146617;575;47912;-69
2023/10/24 11:26:13;;;;;;;;;15.33;14.33;;;;;26.31;59.44;101041.66;146636;636;45020;-68
2023/10/24 11:29:13;;;;;;;;;16.00;15.33;;;;;26.41;59.14;101044.22;146633;586;45014;-67
2023/10/24 11:32:10;;;;;;;;;15.33;12.33;;;;;26.44;56.87;101044.19;146634;584;45010;-68
2023/10/24 11:35:39;;;;;;;;;13.33;13.00;;;;;25.57;61.68;100865.09;146631;612;46914;-68
2023/10/24 11:38:36;;;;;;;;;15.00;15.00;;;;;26.75;59.34;101027.97;146637;579;45010;-68
2023/10/24 11:41:34;;;;;;;;;16.33;14.00;;;;;26.85;53.56;101026.06;146634;600;45013;-68
2023/10/24 11:44:29;;;;;;;;;18.33;15.00;;;;;26.83;57.21;101026.09;146636;572;46010;-68
2023/10/24 11:47:55;;;;;;;;;14.33;12.33;;;;;25.65;59.94;100797.78;146631;565;45038;-68
2023/10/24 11:50:58;;;;;;;;;17.67;16.33;;;;;27.27;54.91;101027.37;146634;585;45025;-68
2023/10/24 11:54:13;;;;;;;;;16.00;14.67;;;;;27.45;56.86;101026.28;146631;608;46016;-66
2023/10/24 11:57:10;;;;;;;;;12.00;12.00;;;;;27.45;54.94;101010.28;146635;585;45030;-68
2023/10/24 12:00:36;;;;;;;;;14.33;13.33;;;;;27.46;56.16;101013.84;146631;604;45016;-69
2023/10/24 12:04:00;;;;;;;;;16.00;13.67;;;;;27.29;53.87;100988.31;146635;586;45020;-67
2023/10/24 12:07:37;;;;;;;;;;;;;;;;;;;;;
2023/10/24 12:10:39;;;;;;;;;13.67;13.00;;;;;27.10;53.43;101008.03;146631;586;45020;-66
2023/10/24 12:13:43;;;;;;;;;15.00;11.67;;;;;26.98;57.55;100995.78;146615;571;46016;-68
2023/10/24 12:17:32;;;;;;;;;14.67;12.00;;;;;25.68;53.60;100760.56;146620;585;46020;-66
2023/10/24 12:20:44;;;;;;;;;15.00;14.67;;;;;27.02;53.40;101001.94;146615;598;46017;-66
2023/10/24 12:23:38;;;;;;;;;15.67;15.00;;;;;26.88;54.83;101000.31;146620;590;46020;-66
2023/10/24 12:26:42;;;;;;;;;14.00;12.00;;;;;26.78;55.79;100997.78;146613;667;46027;-68
2023/10/24 12:29:49;;;;;;;;;17.67;14.00;;;;;26.80;55.75;100999.53;146619;613;46014;-68
2023/10/24 12:32:47;;;;;;;;;13.00;12.00;;;;;26.90;58.45;101002.97;146613;625;46017;-68
2023/10/24 12:36:10;;;;;;;;;14.00;14.00;;;;;27.05;58.97;101008.09;146617;571;46010;-67
2023/10/24 12:39:24;;;;;;;;;;;;;;;;;;;;;
2023/10/24 12:42:36;;;;;;;;;18.00;15.00;;;;;27.31;57.26;100999.81;146616;639;46020;-68
2023/10/24 12:45:39;;;;;;;;;17.00;15.00;;;;;27.22;57.53;100991.94;146613;580;46014;-67
2023/10/24 12:48:35;;;;;;;;;17.00;13.67;;;;;27.14;58.14;100993.84;146619;584;46021;-69
2023/10/24 12:51:35;;;;;;;;;14.00;14.00;;;;;27.10;58.12;100997.41;146615;569;46016;-67
2023/10/24 12:54:37;;;;;;;;;14.33;14.33;;;;;27.18;59.51;100992.91;146614;617;46021;-67
2023/10/24 12:57:53;;;;;;;;;14.33;11.67;;;;;27.32;58.98;100992.69;146615;643;46016;-67
2023/10/24 13:00:47;;;;;;;;;13.33;11.00;;;;;27.51;58.28;100994.22;146618;572;46010;-67
2023/10/24 13:03:55;;;;;;;;;13.67;11.00;;;;;27.70;58.11;100988.63;146618;566;46017;-68
2023/10/24 13:06:50;;;;;;;;;16.67;13.67;;;;;27.92;55.95;100987.41;146618;611;46020;-68
2023/10/24 13:09:54;;;;;;;;;16.67;14.00;;;;;28.02;57.04;100975.69;146615;596;46915;-69
2023/10/24 13:12:47;;;;;;;;;15.67;13.67;;;;;28.05;56.22;100974.75;146637;649;46014;-68
2023/10/24 13:15:48;;;;;;;;;7.67;5.00;;;;;28.03;56.91;100972.09;146627;593;45914;-67
2023/10/24 13:19:00;;;;;;;;;17.33;15.67;;;;;27.79;58.50;100975.19;146636;589;46010;-68
2023/10/24 13:22:01;;;;;;;;;12.00;12.00;;;;;27.59;60.18;100967.47;146632;602;45016;-68
2023/10/24 13:24:57;;;;;;;;;13.00;11.67;;;;;27.56;59.50;100962.19;146636;566;45021;-68
2023/10/24 13:28:01;;;;;;;;;13.67;13.00;;;;;27.61;58.80;100965.66;146631;579;45016;-66
2023/10/24 13:30:58;;;;;;;;;14.67;12.67;;;;;27.57;58.36;100970.16;146634;582;45028;-67
2023/10/24 13:33:58;;;;;;;;;14.00;13.67;;;;;27.49;60.08;100961.41;146631;569;46012;-66
2023/10/24 13:37:09;;;;;;;;;12.00;11.33;;;;;27.40;58.96;100957.09;146633;655;46010;-67
2023/10/24 13:40:22;;;;;;;;;18.33;13.00;;;;;27.19;59.14;100965.38;146631;651;46012;-66
2023/10/24 13:43:39;;;;;;;;;15.67;13.00;;;;;27.00;59.52;100962.03;146639;573;45010;-66
2023/10/24 13:46:42;;;;;;;;;16.67;16.00;;;;;26.85;60.13;100964.88;146635;564;45016;-66
2023/10/24 13:49:41;;;;;;;;;15.33;14.00;;;;;26.70;59.94;100956.19;146636;615;45020;-66
2023/10/24 13:52:52;;;;;;;;;16.67;15.33;;;;;26.56;61.25;100960.78;146633;598;45016;-67
2023/10/24 13:55:53;;;;;;;;;12.33;11.33;;;;;26.41;60.93;100955.59;146632;613;45010;-67
2023/10/24 13:58:48;;;;;;;;;15.33;14.00;;;;;26.29;62.44;100950.41;146637;591;45012;-67
2023/10/24 14:01:48;;;;;;;;;11.33;11.33;;;;;26.23;62.81;100948.66;146637;648;45021;-68
2023/10/24 14:05:11;;;;;;;;;14.67;12.00;;;;;26.14;62.50;100944.34;146633;574;46012;-67
2023/10/24 14:08:24;;;;;;;;;16.33;14.67;;;;;26.05;62.53;100940.91;146635;619;45020;-68
2023/10/24 14:11:37;;;;;;;;;;;;;;;;;;;;;
2023/10/24 14:14:32;;;;;;;;;14.00;13.67;;;;;25.84;62.69;100936.66;146614;570;46022;-68
2023/10/24 14:17:35;;;;;;;;;18.67;17.33;;;;;25.77;63.23;100936.66;146614;610;46017;-68
2023/10/24 14:20:38;;;;;;;;;20.00;17.00;;;;;25.68;63.10;100933.19;146620;635;46033;-67
2023/10/24 14:23:42;;;;;;;;;15.00;15.00;;;;;25.64;63.54;100944.72;146615;666;46016;-68
2023/10/24 14:26:40;;;;;;;;;17.25;15.00;;;;;25.61;62.99;100942.06;146619;684;46010;-68